createdAt,value
2022-11-20T00:00:04.659Z,984.96
2022-11-20T00:01:04.603Z,984.93
2022-11-20T00:02:04.684Z,984.95
2022-11-20T00:03:04.625Z,984.97
2022-11-20T00:04:04.569Z,984.96
2022-11-20T00:05:04.557Z,985.02
2022-11-20T00:06:04.584Z,985.01
2022-11-20T00:07:04.617Z,985.01
2022-11-20T00:08:04.553Z,985.01
2022-11-20T00:09:04.534Z,984.99
2022-11-20T00:10:04.545Z,985.01
2022-11-20T00:11:04.485Z,984.99
2022-11-20T00:12:04.465Z,985.01
2022-11-20T00:13:04.477Z,985.01
2022-11-20T00:14:04.459Z,984.97
2022-11-20T00:15:04.436Z,985.05
2022-11-20T00:16:04.602Z,985.02
2022-11-20T00:17:04.432Z,985.04
2022-11-20T00:18:04.428Z,985.03
2022-11-20T00:19:04.411Z,984.98
2022-11-20T00:20:04.430Z,985.02
2022-11-20T00:21:04.420Z,985.04
2022-11-20T00:22:04.437Z,985.07
2022-11-20T00:23:04.382Z,985.10
2022-11-20T00:24:04.364Z,985.15
2022-11-20T00:25:04.361Z,985.05
2022-11-20T00:26:04.446Z,985.08
2022-11-20T00:27:04.352Z,985.11
2022-11-20T00:28:04.406Z,985.05
2022-11-20T00:29:04.310Z,985.09
2022-11-20T00:30:04.408Z,985.10
2022-11-20T00:31:04.274Z,984.99
2022-11-20T00:32:04.270Z,985.04
2022-11-20T00:33:04.262Z,985.03
2022-11-20T00:34:04.276Z,984.96
2022-11-20T00:35:04.244Z,985.03
2022-11-20T00:36:04.232Z,985.01
2022-11-20T00:37:04.200Z,985.03
2022-11-20T00:38:04.230Z,985.01
2022-11-20T00:39:04.201Z,985.03
2022-11-20T00:40:04.173Z,985.00
2022-11-20T00:41:04.211Z,985.00
2022-11-20T00:42:04.144Z,985.05
2022-11-20T00:43:04.220Z,985.03
2022-11-20T00:44:04.177Z,985.08
2022-11-20T00:45:04.137Z,985.04
2022-11-20T00:46:04.134Z,985.04
2022-11-20T00:47:04.163Z,985.02
2022-11-20T00:48:04.131Z,985.02
2022-11-20T00:49:04.078Z,984.99
2022-11-20T00:50:04.067Z,984.98
2022-11-20T00:51:04.065Z,985.03
2022-11-20T00:52:04.064Z,985.02
2022-11-20T00:53:04.069Z,985.04
2022-11-20T00:54:04.089Z,985.01
2022-11-20T00:55:04.021Z,985.07
2022-11-20T00:56:04.021Z,985.11
2022-11-20T00:57:03.984Z,985.06
2022-11-20T00:58:04.729Z,985.08
2022-11-20T00:59:03.967Z,985.07
2022-11-20T01:00:03.959Z,985.10
2022-11-20T01:01:04.075Z,985.08
2022-11-20T01:02:03.988Z,985.09
2022-11-20T01:03:03.927Z,985.06
2022-11-20T01:04:03.925Z,985.09
2022-11-20T01:05:03.916Z,985.07
2022-11-20T01:06:03.926Z,985.03
2022-11-20T01:07:03.969Z,985.02
2022-11-20T01:08:03.918Z,985.10
2022-11-20T01:09:03.926Z,985.07
2022-11-20T01:10:03.847Z,985.05
2022-11-20T01:11:03.866Z,985.06
2022-11-20T01:12:03.860Z,985.06
2022-11-20T01:13:03.839Z,985.03
2022-11-20T01:14:03.854Z,985.05
2022-11-20T01:15:03.792Z,985.03
2022-11-20T01:16:03.836Z,985.03
2022-11-20T01:17:03.776Z,985.06
2022-11-20T01:18:03.859Z,985.03
2022-11-20T01:19:03.752Z,985.05
2022-11-20T01:20:03.745Z,985.02
2022-11-20T01:21:03.826Z,985.09
2022-11-20T01:22:03.725Z,985.01
2022-11-20T01:23:03.772Z,985.00
2022-11-20T01:24:03.720Z,985.08
2022-11-20T01:25:03.685Z,985.06
2022-11-20T01:26:03.714Z,985.10
2022-11-20T01:27:03.669Z,985.05
2022-11-20T01:28:03.672Z,985.09
2022-11-20T01:29:03.646Z,985.09
2022-11-20T01:30:03.644Z,985.07
2022-11-20T01:31:03.664Z,985.12
2022-11-20T01:32:03.667Z,985.12
2022-11-20T01:33:03.665Z,985.11
2022-11-20T01:34:03.629Z,985.07
2022-11-20T01:35:03.632Z,985.13
2022-11-20T01:36:03.580Z,985.08
2022-11-20T01:37:03.658Z,985.13
2022-11-20T01:38:03.560Z,985.18
2022-11-20T01:39:03.542Z,985.14
2022-11-20T01:40:03.538Z,985.13
2022-11-20T01:41:03.511Z,985.20
2022-11-20T01:42:08.402Z,985.13
2022-11-20T01:43:04.536Z,985.23
2022-11-20T01:44:03.562Z,985.17
2022-11-20T01:45:03.476Z,985.18
2022-11-20T01:46:03.475Z,985.19
2022-11-20T01:47:03.452Z,985.16
2022-11-20T01:48:03.472Z,985.14
2022-11-20T01:49:03.477Z,985.11
2022-11-20T01:50:03.428Z,985.23
2022-11-20T01:51:03.410Z,985.11
2022-11-20T01:52:03.396Z,985.21
2022-11-20T01:53:03.406Z,985.20
2022-11-20T01:54:03.445Z,985.19
2022-11-20T01:55:03.363Z,985.14
2022-11-20T01:56:03.389Z,985.14
2022-11-20T01:57:03.362Z,985.19
2022-11-20T01:58:03.359Z,985.16
2022-11-20T01:59:03.340Z,985.16
2022-11-20T02:00:03.317Z,985.14
2022-11-20T02:01:03.431Z,985.13
2022-11-20T02:02:03.371Z,985.05
2022-11-20T02:03:03.297Z,985.12
2022-11-20T02:04:03.270Z,985.18
2022-11-20T02:05:03.359Z,985.18
2022-11-20T02:06:03.249Z,985.24
2022-11-20T02:07:03.273Z,985.27
2022-11-20T02:08:03.279Z,985.27
2022-11-20T02:09:03.244Z,985.28
2022-11-20T02:10:03.208Z,985.33
2022-11-20T02:11:03.228Z,985.32
2022-11-20T02:12:03.259Z,985.31
2022-11-20T02:13:03.200Z,985.36
2022-11-20T02:14:03.215Z,985.30
2022-11-20T02:15:03.158Z,985.35
2022-11-20T02:16:03.170Z,985.37
2022-11-20T02:17:03.136Z,985.33
2022-11-20T02:18:03.152Z,985.38
2022-11-20T02:19:03.126Z,985.31
2022-11-20T02:20:03.130Z,985.29
2022-11-20T02:21:03.085Z,985.26
2022-11-20T02:22:03.081Z,985.23
2022-11-20T02:23:03.179Z,985.29
2022-11-20T02:24:03.063Z,985.27
2022-11-20T02:25:03.052Z,985.26
2022-11-20T02:26:03.037Z,985.19
2022-11-20T02:27:03.034Z,985.19
2022-11-20T02:28:03.051Z,985.13
2022-11-20T02:29:03.045Z,985.19
2022-11-20T02:30:03.042Z,985.10
2022-11-20T02:31:03.006Z,985.05
2022-11-20T02:32:02.975Z,985.09
2022-11-20T02:33:03.010Z,985.07
2022-11-20T02:34:02.994Z,985.05
2022-11-20T02:35:02.952Z,985.12
2022-11-20T02:36:02.931Z,985.10
2022-11-20T02:37:02.936Z,985.20
2022-11-20T02:38:02.950Z,985.24
2022-11-20T02:39:03.024Z,985.27
2022-11-20T02:40:02.893Z,985.23
2022-11-20T02:41:02.871Z,985.15
2022-11-20T02:42:02.867Z,985.21
2022-11-20T02:43:02.851Z,985.24
2022-11-20T02:44:02.901Z,985.27
2022-11-20T02:45:02.887Z,985.22
2022-11-20T02:46:02.834Z,985.26
2022-11-20T02:47:02.817Z,985.18
2022-11-20T02:48:02.822Z,985.15
2022-11-20T02:49:02.842Z,985.26
2022-11-20T02:50:02.781Z,985.26
2022-11-20T02:51:02.772Z,985.18
2022-11-20T02:52:02.843Z,985.17
2022-11-20T02:53:02.795Z,985.22
2022-11-20T02:54:02.834Z,985.19
2022-11-20T02:55:02.765Z,985.19
2022-11-20T02:56:02.796Z,985.12
2022-11-20T02:57:02.700Z,985.13
2022-11-20T02:58:02.734Z,985.04
2022-11-20T02:59:02.688Z,985.05
2022-11-20T03:00:02.687Z,985.00
2022-11-20T03:01:02.741Z,984.99
2022-11-20T03:02:02.652Z,985.03
2022-11-20T03:03:02.689Z,985.07
2022-11-20T03:04:02.663Z,985.10
2022-11-20T03:05:02.658Z,985.16
2022-11-20T03:06:02.648Z,985.16
2022-11-20T03:07:02.699Z,985.09
2022-11-20T03:08:02.705Z,985.15
2022-11-20T03:09:02.582Z,985.10
2022-11-20T03:10:02.569Z,985.12
2022-11-20T03:11:02.578Z,985.16
2022-11-20T03:12:02.701Z,985.16
2022-11-20T03:13:02.567Z,985.09
2022-11-20T03:14:02.529Z,985.10
2022-11-20T03:15:02.686Z,985.06
2022-11-20T03:16:02.541Z,985.01
2022-11-20T03:17:02.563Z,985.04
2022-11-20T03:18:02.530Z,985.12
2022-11-20T03:19:02.480Z,985.01
2022-11-20T03:20:02.484Z,985.04
2022-11-20T03:21:02.557Z,984.96
2022-11-20T03:22:02.473Z,984.96
2022-11-20T03:23:02.463Z,985.01
2022-11-20T03:24:02.419Z,984.97
2022-11-20T03:25:02.430Z,985.05
2022-11-20T03:26:02.476Z,985.02
2022-11-20T03:27:02.419Z,985.00
2022-11-20T03:28:02.396Z,984.97
2022-11-20T03:29:02.391Z,984.97
2022-11-20T03:30:02.400Z,984.96
2022-11-20T03:31:02.539Z,985.00
2022-11-20T03:32:02.338Z,984.89
2022-11-20T03:33:02.340Z,984.97
2022-11-20T03:34:02.483Z,984.94
2022-11-20T03:35:02.300Z,984.92
2022-11-20T03:36:02.290Z,984.91
2022-11-20T03:37:02.279Z,984.96
2022-11-20T03:38:02.451Z,985.00
2022-11-20T03:39:02.255Z,985.00
2022-11-20T03:40:02.246Z,985.04
2022-11-20T03:41:02.291Z,984.99
2022-11-20T03:42:02.227Z,984.95
2022-11-20T03:43:02.243Z,985.06
2022-11-20T03:44:02.203Z,985.02
2022-11-20T03:45:02.191Z,985.04
2022-11-20T03:46:02.198Z,985.04
2022-11-20T03:47:02.176Z,985.00
2022-11-20T03:48:02.199Z,985.03
2022-11-20T03:49:02.156Z,985.02
2022-11-20T03:50:02.180Z,985.07
2022-11-20T03:51:02.128Z,985.07
2022-11-20T03:52:02.152Z,985.00
2022-11-20T03:53:02.129Z,985.07
2022-11-20T03:54:02.135Z,985.07
2022-11-20T03:55:02.096Z,985.05
2022-11-20T03:56:02.078Z,985.10
2022-11-20T03:57:02.082Z,985.06
2022-11-20T03:58:02.115Z,985.01
2022-11-20T03:59:02.197Z,985.03
2022-11-20T04:00:02.070Z,985.01
2022-11-20T04:01:02.048Z,985.10
2022-11-20T04:02:02.055Z,985.05
2022-11-20T04:03:02.006Z,985.11
2022-11-20T04:04:02.082Z,985.15
2022-11-20T04:05:02.070Z,985.12
2022-11-20T04:06:01.970Z,985.16
2022-11-20T04:07:02.000Z,985.12
2022-11-20T04:08:02.103Z,985.05
2022-11-20T04:09:01.940Z,985.11
2022-11-20T04:10:01.924Z,985.08
2022-11-20T04:11:01.934Z,985.02
2022-11-20T04:12:01.936Z,985.00
2022-11-20T04:13:01.935Z,985.07
2022-11-20T04:14:01.928Z,985.03
2022-11-20T04:15:01.888Z,985.03
2022-11-20T04:16:01.895Z,985.03
2022-11-20T04:17:01.889Z,985.05
2022-11-20T04:18:01.900Z,985.07
2022-11-20T04:19:01.860Z,985.04
2022-11-20T04:20:01.874Z,985.10
2022-11-20T04:21:01.817Z,985.14
2022-11-20T04:22:01.806Z,985.04
2022-11-20T04:23:01.792Z,985.04
2022-11-20T04:24:01.775Z,985.09
2022-11-20T04:25:01.860Z,985.09
2022-11-20T04:26:01.788Z,985.16
2022-11-20T04:27:01.775Z,985.13
2022-11-20T04:28:01.772Z,985.13
2022-11-20T04:29:01.726Z,985.15
2022-11-20T04:30:01.747Z,985.11
2022-11-20T04:31:01.706Z,985.16
2022-11-20T04:32:01.696Z,985.16
2022-11-20T04:33:01.738Z,985.14
2022-11-20T04:34:01.728Z,985.15
2022-11-20T04:35:01.660Z,985.08
2022-11-20T04:36:01.667Z,985.11
2022-11-20T04:37:01.684Z,985.08
2022-11-20T04:38:01.651Z,985.06
2022-11-20T04:39:01.685Z,985.07
2022-11-20T04:40:01.610Z,985.12
2022-11-20T04:41:01.616Z,985.05
2022-11-20T04:42:01.635Z,985.13
2022-11-20T04:43:01.601Z,985.01
2022-11-20T04:44:01.635Z,985.05
2022-11-20T04:45:01.593Z,985.04
2022-11-20T04:46:01.547Z,985.02
2022-11-20T04:47:01.576Z,985.05
2022-11-20T04:48:01.523Z,985.05
2022-11-20T04:49:01.562Z,985.10
2022-11-20T04:50:01.547Z,985.15
2022-11-20T04:51:01.492Z,985.18
2022-11-20T04:52:01.506Z,985.19
2022-11-20T04:53:01.491Z,985.14
2022-11-20T04:54:01.497Z,985.20
2022-11-20T04:55:01.549Z,985.09
2022-11-20T04:56:01.440Z,985.10
2022-11-20T04:57:01.448Z,985.14
2022-11-20T04:58:01.444Z,985.06
2022-11-20T04:59:08.490Z,985.04
2022-11-20T05:00:01.411Z,985.08
2022-11-20T05:01:01.383Z,985.06
2022-11-20T05:02:01.396Z,985.03
2022-11-20T05:03:01.375Z,985.12
2022-11-20T05:04:01.415Z,985.12
2022-11-20T05:05:01.373Z,985.10
2022-11-20T05:06:01.330Z,985.12
2022-11-20T05:07:01.385Z,985.14
2022-11-20T05:08:01.330Z,985.09
2022-11-20T05:09:01.320Z,985.09
2022-11-20T05:10:01.285Z,985.09
2022-11-20T05:11:01.324Z,985.03
2022-11-20T05:12:01.288Z,985.03
2022-11-20T05:13:01.259Z,985.04
2022-11-20T05:14:01.272Z,985.05
2022-11-20T05:15:01.251Z,985.08
2022-11-20T05:16:01.259Z,985.05
2022-11-20T05:17:01.213Z,985.05
2022-11-20T05:18:01.221Z,985.00
2022-11-20T05:19:01.279Z,985.06
2022-11-20T05:20:01.188Z,985.09
2022-11-20T05:21:01.165Z,985.13
2022-11-20T05:22:01.203Z,985.12
2022-11-20T05:23:01.158Z,985.13
2022-11-20T05:24:01.162Z,985.08
2022-11-20T05:25:01.124Z,985.10
2022-11-20T05:26:01.136Z,985.09
2022-11-20T05:27:01.135Z,985.19
2022-11-20T05:28:01.150Z,985.14
2022-11-20T05:29:01.080Z,985.12
2022-11-20T05:30:01.269Z,985.16
2022-11-20T05:31:01.115Z,985.16
2022-11-20T05:32:01.058Z,985.11
2022-11-20T05:33:01.093Z,985.16
2022-11-20T05:34:01.079Z,985.17
2022-11-20T05:35:01.023Z,985.11
2022-11-20T05:36:01.027Z,985.20
2022-11-20T05:37:01.003Z,985.17
2022-11-20T05:38:01.018Z,985.19
2022-11-20T05:39:01.951Z,985.19
2022-11-20T05:40:00.973Z,985.19
2022-11-20T05:41:01.013Z,985.21
2022-11-20T05:42:00.947Z,985.16
2022-11-20T05:43:00.938Z,985.14
2022-11-20T05:44:00.949Z,985.16
2022-11-20T05:45:00.918Z,985.19
2022-11-20T05:46:00.906Z,985.14
2022-11-20T05:47:00.916Z,985.16
2022-11-20T05:48:00.893Z,985.10
2022-11-20T05:49:00.902Z,985.07
2022-11-20T05:50:00.867Z,985.09
2022-11-20T05:51:00.847Z,985.07
2022-11-20T05:52:00.858Z,985.08
2022-11-20T05:53:00.836Z,985.08
2022-11-20T05:54:00.847Z,985.14
2022-11-20T05:55:00.861Z,985.08
2022-11-20T05:56:00.790Z,985.09
2022-11-20T05:57:00.786Z,985.05
2022-11-20T05:58:00.803Z,985.08
2022-11-20T05:59:00.816Z,985.01
2022-11-20T06:00:00.786Z,985.03
2022-11-20T06:01:00.748Z,985.02
2022-11-20T06:02:00.785Z,985.04
2022-11-20T06:03:00.751Z,984.99
2022-11-20T06:04:00.750Z,985.06
2022-11-20T06:05:00.767Z,985.02
2022-11-20T06:06:00.694Z,984.99
2022-11-20T06:07:00.737Z,985.00
2022-11-20T06:08:00.689Z,984.99
2022-11-20T06:09:00.693Z,985.09
2022-11-20T06:10:00.668Z,985.08
2022-11-20T06:11:00.638Z,985.05
2022-11-20T06:12:00.665Z,985.07
2022-11-20T06:13:00.638Z,985.09
2022-11-20T06:14:00.607Z,985.06
2022-11-20T06:15:00.596Z,985.07
2022-11-20T06:16:00.586Z,985.07
2022-11-20T06:17:00.616Z,985.06
2022-11-20T06:18:00.634Z,985.11
2022-11-20T06:19:00.619Z,985.10
2022-11-20T06:20:00.584Z,985.07
2022-11-20T06:21:00.560Z,985.12
2022-11-20T06:22:00.516Z,985.06
2022-11-20T06:23:00.541Z,985.17
2022-11-20T06:24:00.540Z,985.12
2022-11-20T06:25:00.501Z,985.16
2022-11-20T06:26:00.498Z,985.17
2022-11-20T06:27:00.470Z,985.22
2022-11-20T06:28:00.530Z,985.17
2022-11-20T06:29:00.496Z,985.16
2022-11-20T06:30:00.433Z,985.19
2022-11-20T06:31:00.479Z,985.20
2022-11-20T06:32:00.420Z,985.20
2022-11-20T06:33:00.443Z,985.14
2022-11-20T06:34:00.428Z,985.20
2022-11-20T06:35:00.450Z,985.15
2022-11-20T06:36:03.428Z,985.15
2022-11-20T06:37:01.417Z,985.14
2022-11-20T06:38:00.371Z,985.18
2022-11-20T06:39:00.381Z,985.14
2022-11-20T06:40:00.346Z,985.11
2022-11-20T06:41:00.341Z,985.08
2022-11-20T06:42:00.301Z,985.07
2022-11-20T06:43:00.304Z,985.09
2022-11-20T06:44:00.319Z,985.07
2022-11-20T06:45:00.312Z,985.09
2022-11-20T06:46:00.285Z,985.13
2022-11-20T06:47:00.308Z,985.15
2022-11-20T06:48:00.237Z,985.08
2022-11-20T06:49:00.278Z,985.12
2022-11-20T06:50:00.284Z,985.15
2022-11-20T06:51:00.294Z,985.14
2022-11-20T06:52:00.200Z,985.16
2022-11-20T06:53:00.189Z,985.19
2022-11-20T06:54:00.272Z,985.20
2022-11-20T06:55:00.183Z,985.23
2022-11-20T06:56:00.171Z,985.22
2022-11-20T06:57:00.141Z,985.19
2022-11-20T06:58:00.172Z,985.36
2022-11-20T06:59:00.219Z,985.33
2022-11-20T07:00:00.124Z,985.33
2022-11-20T07:01:00.244Z,985.33
2022-11-20T07:02:00.096Z,985.33
2022-11-20T07:03:00.085Z,985.33
2022-11-20T07:04:00.128Z,985.40
2022-11-20T07:05:00.110Z,985.34
2022-11-20T07:06:00.072Z,985.37
2022-11-20T07:07:00.201Z,985.36
2022-11-20T07:08:00.077Z,985.38
2022-11-20T07:09:00.066Z,985.33
2022-11-20T07:10:00.007Z,985.40
2022-11-20T07:11:00.023Z,985.38
2022-11-20T07:12:00.011Z,985.40
2022-11-20T07:12:59.996Z,985.38
2022-11-20T07:13:59.998Z,985.43
2022-11-20T07:14:59.954Z,985.39
2022-11-20T07:15:59.948Z,985.46
2022-11-20T07:17:00.030Z,985.44
2022-11-20T07:17:59.952Z,985.49
2022-11-20T07:18:59.951Z,985.42
2022-11-20T07:19:59.902Z,985.49
2022-11-20T07:20:59.964Z,985.45
2022-11-20T07:21:59.874Z,985.46
2022-11-20T07:22:59.872Z,985.41
2022-11-20T07:23:59.876Z,985.42
2022-11-20T07:24:59.883Z,985.43
2022-11-20T07:25:59.853Z,985.46
2022-11-20T07:26:59.855Z,985.44
2022-11-20T07:27:59.866Z,985.41
2022-11-20T07:28:59.944Z,985.47
2022-11-20T07:29:59.803Z,985.43
2022-11-20T07:30:59.844Z,985.47
2022-11-20T07:31:59.869Z,985.44
2022-11-20T07:32:59.778Z,985.46
2022-11-20T07:33:59.769Z,985.53
2022-11-20T07:34:59.744Z,985.53
2022-11-20T07:35:59.753Z,985.57
2022-11-20T07:36:59.811Z,985.53
2022-11-20T07:37:59.767Z,985.50
2022-11-20T07:38:59.751Z,985.50
2022-11-20T07:39:59.703Z,985.55
2022-11-20T07:40:59.766Z,985.53
2022-11-20T07:41:59.695Z,985.54
2022-11-20T07:42:59.703Z,985.53
2022-11-20T07:43:59.704Z,985.52
2022-11-20T07:44:59.663Z,985.53
2022-11-20T07:45:59.664Z,985.54
2022-11-20T07:46:59.635Z,985.55
2022-11-20T07:47:59.598Z,985.55
2022-11-20T07:48:59.628Z,985.58
2022-11-20T07:49:59.662Z,985.56
2022-11-20T07:50:59.573Z,985.56
2022-11-20T07:52:04.415Z,985.57
2022-11-20T07:53:00.609Z,985.58
2022-11-20T07:53:59.608Z,985.58
2022-11-20T07:54:59.573Z,985.61
2022-11-20T07:55:59.517Z,985.59
2022-11-20T07:56:59.529Z,985.61
2022-11-20T07:57:59.558Z,985.64
2022-11-20T08:00:40.206Z,985.58
2022-11-20T08:01:43.669Z,985.60
2022-11-20T08:02:40.562Z,985.60
2022-11-20T08:04:56.000Z,985.61
2022-11-20T08:05:55.976Z,985.57
2022-11-20T08:06:55.947Z,985.61
2022-11-20T08:07:55.941Z,985.56
2022-11-20T08:08:55.961Z,985.67
2022-11-20T08:09:55.973Z,985.66
2022-11-20T08:10:55.909Z,985.70
2022-11-20T08:11:55.922Z,985.72
2022-11-20T08:12:55.954Z,985.63
2022-11-20T08:13:55.936Z,985.74
2022-11-20T08:14:55.874Z,985.74
2022-11-20T08:15:55.893Z,985.74
2022-11-20T08:16:55.878Z,985.74
2022-11-20T08:18:23.268Z,985.65
2022-11-20T08:18:56.862Z,985.73
2022-11-20T08:19:55.839Z,985.72
2022-11-20T08:20:55.849Z,985.70
2022-11-20T08:21:55.785Z,985.72
2022-11-20T08:22:55.798Z,985.80
2022-11-20T08:23:55.800Z,985.77
2022-11-20T08:24:55.781Z,985.83
2022-11-20T08:25:55.816Z,985.83
2022-11-20T08:26:55.755Z,985.84
2022-11-20T08:28:00.185Z,985.87
2022-11-20T08:28:55.726Z,985.85
2022-11-20T08:29:55.739Z,985.86
2022-11-20T08:30:55.753Z,985.87
2022-11-20T08:31:55.675Z,985.88
2022-11-20T08:32:55.664Z,985.91
2022-11-20T08:33:55.721Z,985.87
2022-11-20T08:34:55.696Z,985.90
2022-11-20T08:35:55.634Z,985.95
2022-11-20T08:36:55.660Z,985.97
2022-11-20T08:37:55.610Z,986.05
2022-11-20T08:38:55.642Z,986.01
2022-11-20T08:39:55.601Z,986.02
2022-11-20T08:40:55.588Z,985.99
2022-11-20T08:41:55.585Z,986.02
2022-11-20T08:42:55.641Z,986.04
2022-11-20T08:43:55.586Z,986.02
2022-11-20T08:44:55.693Z,986.06
2022-11-20T08:45:55.609Z,986.04
2022-11-20T08:46:55.514Z,986.06
2022-11-20T08:47:55.509Z,986.07
2022-11-20T08:48:55.522Z,986.04
2022-11-20T08:49:55.510Z,986.11
2022-11-20T08:50:55.519Z,986.13
2022-11-20T08:51:55.459Z,986.11
2022-11-20T08:52:55.462Z,986.13
2022-11-20T08:53:55.439Z,986.14
2022-11-20T08:54:55.540Z,986.17
2022-11-20T08:55:55.414Z,986.15
2022-11-20T08:56:55.448Z,986.20
2022-11-20T08:57:55.394Z,986.22
2022-11-20T08:59:20.122Z,986.23
2022-11-20T09:00:05.955Z,986.23
2022-11-20T09:00:56.452Z,986.19
2022-11-20T09:01:55.375Z,986.17
2022-11-20T09:02:55.364Z,986.25
2022-11-20T09:03:55.377Z,986.24
2022-11-20T09:04:55.370Z,986.28
2022-11-20T09:05:55.309Z,986.21
2022-11-20T09:06:55.337Z,986.19
2022-11-20T09:07:55.319Z,986.26
2022-11-20T09:08:55.299Z,986.28
2022-11-20T09:10:16.795Z,986.28
2022-11-20T09:10:56.267Z,986.30
2022-11-20T09:11:55.260Z,986.28
2022-11-20T09:12:55.238Z,986.33
2022-11-20T09:13:55.279Z,986.35
2022-11-20T09:14:55.214Z,986.34
2022-11-20T09:15:55.217Z,986.27
2022-11-20T09:16:55.213Z,986.32
2022-11-20T09:17:55.202Z,986.24
2022-11-20T09:19:20.303Z,986.23
2022-11-20T09:19:56.185Z,986.22
2022-11-20T09:20:55.245Z,986.28
2022-11-20T09:21:59.598Z,986.29
2022-11-20T09:22:55.128Z,986.33
2022-11-20T09:23:55.158Z,986.31
2022-11-20T09:24:55.125Z,986.37
2022-11-20T09:25:55.322Z,986.35
2022-11-20T09:26:55.085Z,986.38
2022-11-20T09:27:55.133Z,986.42
2022-11-20T09:28:58.157Z,986.43
2022-11-20T09:29:55.269Z,986.44
2022-11-20T09:30:55.090Z,986.42
2022-11-20T09:31:55.092Z,986.40
2022-11-20T09:32:55.024Z,986.44
2022-11-20T09:33:55.021Z,986.44
2022-11-20T09:34:55.679Z,986.47
2022-11-20T09:35:54.985Z,986.46
2022-11-20T09:36:55.037Z,986.49
2022-11-20T09:37:54.974Z,986.49
2022-11-20T09:38:55.174Z,986.46
2022-11-20T09:39:55.052Z,986.42
2022-11-20T09:40:54.973Z,986.35
2022-11-20T09:41:54.995Z,986.44
2022-11-20T09:42:54.919Z,986.45
2022-11-20T09:43:55.191Z,986.47
2022-11-20T09:44:55.081Z,986.43
2022-11-20T09:45:54.926Z,986.41
2022-11-20T09:46:54.878Z,986.44
2022-11-20T09:47:54.862Z,986.39
2022-11-20T09:48:54.880Z,986.45
2022-11-20T09:49:54.873Z,986.47
2022-11-20T09:50:55.010Z,986.44
2022-11-20T09:51:54.870Z,986.42
2022-11-20T09:52:54.798Z,986.46
2022-11-20T09:53:55.534Z,986.48
2022-11-20T09:54:54.779Z,986.49
2022-11-20T09:55:54.779Z,986.45
2022-11-20T09:56:54.754Z,986.45
2022-11-20T09:57:54.904Z,986.56
2022-11-20T09:58:54.758Z,986.53
2022-11-20T09:59:54.745Z,986.53
2022-11-20T10:00:54.973Z,986.62
2022-11-20T10:01:54.868Z,986.55
2022-11-20T10:02:54.688Z,986.56
2022-11-20T10:03:55.823Z,986.61
2022-11-20T10:04:54.666Z,986.59
2022-11-20T10:05:54.664Z,986.61
2022-11-20T10:07:10.538Z,986.58
2022-11-20T10:07:55.796Z,986.58
2022-11-20T10:08:54.689Z,986.51
2022-11-20T10:09:54.682Z,986.57
2022-11-20T10:10:54.605Z,986.60
2022-11-20T10:11:54.632Z,986.54
2022-11-20T10:12:54.584Z,986.53
2022-11-20T10:13:54.586Z,986.47
2022-11-20T10:14:54.564Z,986.45
2022-11-20T10:15:54.557Z,986.48
2022-11-20T10:16:54.557Z,986.47
2022-11-20T10:17:54.529Z,986.49
2022-11-20T10:18:54.575Z,986.46
2022-11-20T10:19:54.509Z,986.49
2022-11-20T10:20:54.510Z,986.51
2022-11-20T10:21:54.557Z,986.48
2022-11-20T10:22:54.483Z,986.41
2022-11-20T10:23:54.496Z,986.41
2022-11-20T10:24:54.485Z,986.45
2022-11-20T10:25:54.491Z,986.43
2022-11-20T10:26:54.438Z,986.38
2022-11-20T10:27:54.455Z,986.42
2022-11-20T10:28:59.231Z,986.42
2022-11-20T10:29:55.401Z,986.41
2022-11-20T10:30:54.419Z,986.41
2022-11-20T10:31:54.379Z,986.42
2022-11-20T10:32:54.383Z,986.34
2022-11-20T10:34:11.736Z,986.33
2022-11-20T10:34:55.363Z,986.37
2022-11-20T10:35:54.352Z,986.34
2022-11-20T10:36:54.346Z,986.31
2022-11-20T10:37:54.371Z,986.34
2022-11-20T10:38:54.563Z,986.33
2022-11-20T10:39:54.305Z,986.31
2022-11-20T10:40:54.281Z,986.31
2022-11-20T10:41:54.276Z,986.36
2022-11-20T10:42:54.289Z,986.34
2022-11-20T10:43:54.307Z,986.29
2022-11-20T10:44:56.701Z,986.26
2022-11-20T10:45:54.259Z,986.31
2022-11-20T10:46:54.216Z,986.23
2022-11-20T10:47:54.204Z,986.24
2022-11-20T10:48:54.266Z,986.23
2022-11-20T10:49:54.207Z,986.25
2022-11-20T10:50:54.204Z,986.15
2022-11-20T10:51:54.191Z,986.15
2022-11-20T10:52:54.173Z,986.11
2022-11-20T10:53:54.157Z,986.15
2022-11-20T10:54:54.143Z,986.19
2022-11-20T10:55:54.112Z,986.14
2022-11-20T10:56:54.114Z,986.17
2022-11-20T10:57:54.118Z,986.06
2022-11-20T10:58:54.101Z,986.06
2022-11-20T10:59:54.070Z,986.05
2022-11-20T11:00:54.130Z,986.07
2022-11-20T11:01:54.066Z,986.06
2022-11-20T11:02:54.072Z,986.00
2022-11-20T11:03:54.138Z,986.01
2022-11-20T11:04:55.084Z,986.00
2022-11-20T11:05:54.442Z,985.90
2022-11-20T11:06:54.142Z,985.96
2022-11-20T11:07:54.047Z,985.85
2022-11-20T11:08:54.003Z,985.86
2022-11-20T11:09:53.964Z,985.87
2022-11-20T11:10:54.026Z,985.91
2022-11-20T11:11:54.018Z,985.90
2022-11-20T11:12:53.926Z,985.89
2022-11-20T11:13:53.999Z,985.85
2022-11-20T11:14:53.920Z,985.86
2022-11-20T11:15:53.894Z,985.77
2022-11-20T11:16:53.913Z,985.79
2022-11-20T11:17:53.880Z,985.77
2022-11-20T11:18:53.959Z,985.67
2022-11-20T11:19:54.593Z,985.64
2022-11-20T11:20:53.879Z,985.64
2022-11-20T11:21:55.397Z,985.66
2022-11-20T11:22:53.919Z,985.65
2022-11-20T11:23:55.550Z,985.64
2022-11-20T11:24:53.850Z,985.68
2022-11-20T11:25:53.836Z,985.61
2022-11-20T11:26:53.781Z,985.55
2022-11-20T11:27:54.119Z,985.52
2022-11-20T11:28:53.768Z,985.50
2022-11-20T11:29:53.742Z,985.46
2022-11-20T11:30:53.754Z,985.38
2022-11-20T11:31:53.743Z,985.37
2022-11-20T11:32:53.708Z,985.30
2022-11-20T11:33:53.825Z,985.33
2022-11-20T11:34:53.694Z,985.29
2022-11-20T11:35:53.686Z,985.31
2022-11-20T11:36:53.678Z,985.27
2022-11-20T11:37:53.683Z,985.19
2022-11-20T11:38:53.679Z,985.18
2022-11-20T11:40:16.490Z,985.23
2022-11-20T11:40:53.691Z,985.17
2022-11-20T11:41:53.611Z,985.16
2022-11-20T11:42:53.620Z,985.23
2022-11-20T11:43:53.612Z,985.16
2022-11-20T11:44:54.070Z,985.16
2022-11-20T11:45:53.613Z,985.18
2022-11-20T11:46:53.585Z,985.10
2022-11-20T11:47:53.606Z,985.11
2022-11-20T11:48:53.589Z,985.08
2022-11-20T11:49:53.764Z,985.07
2022-11-20T11:50:53.576Z,985.02
2022-11-20T11:51:54.049Z,985.07
2022-11-20T11:52:53.584Z,985.07
2022-11-20T11:53:53.610Z,985.03
2022-11-20T11:54:55.572Z,985.06
2022-11-20T11:55:53.463Z,984.99
2022-11-20T11:56:53.520Z,984.93
2022-11-20T11:57:53.454Z,984.93
2022-11-20T11:58:53.481Z,984.95
2022-11-20T11:59:53.440Z,984.93
2022-11-20T12:00:53.433Z,984.95
2022-11-20T12:01:53.437Z,984.84
2022-11-20T12:02:53.380Z,984.89
2022-11-20T12:03:53.481Z,984.91
2022-11-20T12:04:53.394Z,984.84
2022-11-20T12:05:53.369Z,984.90
2022-11-20T12:06:53.351Z,984.90
2022-11-20T12:07:53.370Z,984.87
2022-11-20T12:08:53.336Z,984.80
2022-11-20T12:09:53.325Z,984.76
2022-11-20T12:10:53.317Z,984.78
2022-11-20T12:11:53.295Z,984.80
2022-11-20T12:12:53.276Z,984.75
2022-11-20T12:13:53.640Z,984.81
2022-11-20T12:14:53.274Z,984.72
2022-11-20T12:15:53.287Z,984.71
2022-11-20T12:16:53.250Z,984.77
2022-11-20T12:17:53.255Z,984.81
2022-11-20T12:18:53.243Z,984.82
2022-11-20T12:19:53.208Z,984.79
2022-11-20T12:20:53.190Z,984.74
2022-11-20T12:21:57.246Z,984.68
2022-11-20T12:22:54.169Z,984.74
2022-11-20T12:23:53.198Z,984.79
2022-11-20T12:24:53.180Z,984.75
2022-11-20T12:25:53.177Z,984.75
2022-11-20T12:26:53.121Z,984.68
2022-11-20T12:27:53.116Z,984.75
2022-11-20T12:28:53.129Z,984.73
2022-11-20T12:29:53.089Z,984.66
2022-11-20T12:30:53.090Z,984.75